sensor_id;sensor_type;location;lat;lon;timestamp;P1;durP1;ratioP1;P2;durP2;ratioP2
20114;SDS011;10218;42.874;25.320;2023-11-21T00:00:37;4.30;;;2.60;;
20114;SDS011;10218;42.874;25.320;2023-11-21T00:03:05;5.30;;;2.50;;
20114;SDS011;10218;42.874;25.320;2023-11-21T00:05:33;4.00;;;2.43;;
20114;SDS011;10218;42.874;25.320;2023-11-21T00:08:01;5.30;;;2.47;;
20114;SDS011;10218;42.874;25.320;2023-11-21T00:10:29;6.40;;;2.90;;
20114;SDS011;10218;42.874;25.320;2023-11-21T00:12:57;5.57;;;2.70;;
20114;SDS011;10218;42.874;25.320;2023-11-21T00:15:25;6.77;;;2.60;;
20114;SDS011;10218;42.874;25.320;2023-11-21T00:17:53;11.07;;;5.40;;
20114;SDS011;10218;42.874;25.320;2023-11-21T00:20:21;6.23;;;3.50;;
20114;SDS011;10218;42.874;25.320;2023-11-21T00:22:48;7.30;;;4.10;;
20114;SDS011;10218;42.874;25.320;2023-11-21T00:25:15;4.27;;;2.63;;
20114;SDS011;10218;42.874;25.320;2023-11-21T00:27:44;5.97;;;3.73;;
20114;SDS011;10218;42.874;25.320;2023-11-21T00:30:11;6.33;;;3.33;;
20114;SDS011;10218;42.874;25.320;2023-11-21T00:32:39;7.07;;;4.13;;
20114;SDS011;10218;42.874;25.320;2023-11-21T00:35:07;8.73;;;3.80;;
20114;SDS011;10218;42.874;25.320;2023-11-21T00:37:35;6.93;;;3.03;;
20114;SDS011;10218;42.874;25.320;2023-11-21T00:40:03;6.50;;;3.27;;
20114;SDS011;10218;42.874;25.320;2023-11-21T00:42:33;7.47;;;3.67;;
20114;SDS011;10218;42.874;25.320;2023-11-21T00:45:00;4.47;;;2.33;;
20114;SDS011;10218;42.874;25.320;2023-11-21T00:47:27;5.40;;;3.20;;
20114;SDS011;10218;42.874;25.320;2023-11-21T00:49:55;8.50;;;4.77;;
20114;SDS011;10218;42.874;25.320;2023-11-21T00:52:23;9.47;;;4.57;;
20114;SDS011;10218;42.874;25.320;2023-11-21T00:54:51;7.27;;;4.67;;
20114;SDS011;10218;42.874;25.320;2023-11-21T00:57:19;6.20;;;3.03;;
20114;SDS011;10218;42.874;25.320;2023-11-21T00:59:47;5.47;;;2.60;;
20114;SDS011;10218;42.874;25.320;2023-11-21T01:02:14;3.83;;;1.77;;
20114;SDS011;10218;42.874;25.320;2023-11-21T01:04:42;3.53;;;1.70;;
20114;SDS011;10218;42.874;25.320;2023-11-21T01:07:09;3.87;;;1.90;;
20114;SDS011;10218;42.874;25.320;2023-11-21T01:09:36;2.33;;;1.40;;
20114;SDS011;10218;42.874;25.320;2023-11-21T01:12:03;3.60;;;1.60;;
20114;SDS011;10218;42.874;25.320;2023-11-21T01:14:31;5.37;;;1.53;;
20114;SDS011;10218;42.874;25.320;2023-11-21T01:16:59;5.60;;;2.27;;
20114;SDS011;10218;42.874;25.320;2023-11-21T01:19:27;4.30;;;2.37;;
20114;SDS011;10218;42.874;25.320;2023-11-21T01:21:56;4.17;;;1.77;;
20114;SDS011;10218;42.874;25.320;2023-11-21T01:24:25;5.93;;;2.00;;
20114;SDS011;10218;42.874;25.320;2023-11-21T01:26:52;5.93;;;2.00;;
20114;SDS011;10218;42.874;25.320;2023-11-21T01:29:19;12.00;;;3.03;;
20114;SDS011;10218;42.874;25.320;2023-11-21T01:31:48;3.90;;;2.27;;
20114;SDS011;10218;42.874;25.320;2023-11-21T01:34:16;5.53;;;3.30;;
20114;SDS011;10218;42.874;25.320;2023-11-21T01:36:45;7.80;;;3.80;;
20114;SDS011;10218;42.874;25.320;2023-11-21T01:39:14;5.17;;;3.10;;
20114;SDS011;10218;42.874;25.320;2023-11-21T01:41:43;8.80;;;4.80;;
20114;SDS011;10218;42.874;25.320;2023-11-21T01:44:13;8.50;;;5.17;;
20114;SDS011;10218;42.874;25.320;2023-11-21T01:46:40;9.40;;;4.93;;
20114;SDS011;10218;42.874;25.320;2023-11-21T01:49:09;6.90;;;4.37;;
20114;SDS011;10218;42.874;25.320;2023-11-21T01:51:41;8.97;;;4.83;;
20114;SDS011;10218;42.874;25.320;2023-11-21T01:54:12;9.80;;;5.00;;
20114;SDS011;10218;42.874;25.320;2023-11-21T01:56:41;10.00;;;4.87;;
20114;SDS011;10218;42.874;25.320;2023-11-21T01:59:08;10.77;;;4.50;;
20114;SDS011;10218;42.874;25.320;2023-11-21T02:01:35;8.43;;;4.60;;
20114;SDS011;10218;42.874;25.320;2023-11-21T02:04:03;12.67;;;4.77;;
20114;SDS011;10218;42.874;25.320;2023-11-21T02:06:31;11.23;;;4.57;;
20114;SDS011;10218;42.874;25.320;2023-11-21T02:08:58;7.30;;;3.40;;
20114;SDS011;10218;42.874;25.320;2023-11-21T02:11:26;8.77;;;3.27;;
20114;SDS011;10218;42.874;25.320;2023-11-21T02:13:54;10.00;;;2.60;;
20114;SDS011;10218;42.874;25.320;2023-11-21T02:16:21;8.70;;;3.27;;
20114;SDS011;10218;42.874;25.320;2023-11-21T02:18:48;4.43;;;2.17;;
20114;SDS011;10218;42.874;25.320;2023-11-21T02:21:16;7.27;;;2.30;;
20114;SDS011;10218;42.874;25.320;2023-11-21T02:23:44;3.97;;;1.80;;
20114;SDS011;10218;42.874;25.320;2023-11-21T02:26:13;4.43;;;2.40;;
20114;SDS011;10218;42.874;25.320;2023-11-21T02:28:40;7.43;;;3.60;;
20114;SDS011;10218;42.874;25.320;2023-11-21T02:31:09;3.90;;;2.20;;
20114;SDS011;10218;42.874;25.320;2023-11-21T02:33:36;5.27;;;2.40;;
20114;SDS011;10218;42.874;25.320;2023-11-21T02:36:04;3.33;;;1.90;;
20114;SDS011;10218;42.874;25.320;2023-11-21T02:38:32;7.60;;;3.23;;
20114;SDS011;10218;42.874;25.320;2023-11-21T02:41:00;7.80;;;3.60;;
20114;SDS011;10218;42.874;25.320;2023-11-21T02:43:27;9.90;;;4.20;;
20114;SDS011;10218;42.874;25.320;2023-11-21T02:45:54;6.63;;;3.67;;
20114;SDS011;10218;42.874;25.320;2023-11-21T02:48:21;9.23;;;4.60;;
20114;SDS011;10218;42.874;25.320;2023-11-21T02:50:50;9.90;;;4.70;;
20114;SDS011;10218;42.874;25.320;2023-11-21T02:53:19;10.33;;;5.30;;
20114;SDS011;10218;42.874;25.320;2023-11-21T02:55:47;9.33;;;5.00;;
20114;SDS011;10218;42.874;25.320;2023-11-21T02:58:14;9.30;;;5.27;;
20114;SDS011;10218;42.874;25.320;2023-11-21T03:00:42;6.90;;;4.00;;
20114;SDS011;10218;42.874;25.320;2023-11-21T03:03:09;11.60;;;4.30;;
20114;SDS011;10218;42.874;25.320;2023-11-21T03:05:37;10.23;;;4.37;;
20114;SDS011;10218;42.874;25.320;2023-11-21T03:08:06;9.20;;;4.20;;
20114;SDS011;10218;42.874;25.320;2023-11-21T03:10:33;8.00;;;4.03;;
20114;SDS011;10218;42.874;25.320;2023-11-21T03:13:00;4.53;;;3.10;;
20114;SDS011;10218;42.874;25.320;2023-11-21T03:15:27;4.87;;;2.40;;
20114;SDS011;10218;42.874;25.320;2023-11-21T03:17:54;3.50;;;2.60;;
20114;SDS011;10218;42.874;25.320;2023-11-21T03:20:23;10.80;;;4.00;;
20114;SDS011;10218;42.874;25.320;2023-11-21T03:22:50;5.43;;;3.00;;
20114;SDS011;10218;42.874;25.320;2023-11-21T03:25:19;9.67;;;3.80;;
20114;SDS011;10218;42.874;25.320;2023-11-21T03:27:48;7.70;;;3.30;;
20114;SDS011;10218;42.874;25.320;2023-11-21T03:30:16;6.87;;;2.60;;
20114;SDS011;10218;42.874;25.320;2023-11-21T03:32:44;4.93;;;2.80;;
20114;SDS011;10218;42.874;25.320;2023-11-21T03:35:11;3.43;;;2.07;;
20114;SDS011;10218;42.874;25.320;2023-11-21T03:37:39;9.70;;;3.23;;
20114;SDS011;10218;42.874;25.320;2023-11-21T03:40:08;4.50;;;2.00;;
20114;SDS011;10218;42.874;25.320;2023-11-21T03:42:36;3.40;;;2.07;;
20114;SDS011;10218;42.874;25.320;2023-11-21T03:45:03;5.60;;;3.23;;
20114;SDS011;10218;42.874;25.320;2023-11-21T03:47:31;3.07;;;1.70;;
20114;SDS011;10218;42.874;25.320;2023-11-21T03:49:59;3.07;;;1.67;;
20114;SDS011;10218;42.874;25.320;2023-11-21T03:52:26;5.87;;;1.60;;
20114;SDS011;10218;42.874;25.320;2023-11-21T03:54:55;3.07;;;1.70;;
20114;SDS011;10218;42.874;25.320;2023-11-21T03:57:23;4.83;;;2.10;;
20114;SDS011;10218;42.874;25.320;2023-11-21T03:59:51;4.00;;;2.00;;
20114;SDS011;10218;42.874;25.320;2023-11-21T04:02:18;1.60;;;1.30;;
20114;SDS011;10218;42.874;25.320;2023-11-21T04:04:46;5.93;;;1.73;;
20114;SDS011;10218;42.874;25.320;2023-11-21T04:07:14;2.93;;;1.83;;
20114;SDS011;10218;42.874;25.320;2023-11-21T04:09:41;5.40;;;2.30;;
20114;SDS011;10218;42.874;25.320;2023-11-21T04:12:08;7.53;;;3.07;;
20114;SDS011;10218;42.874;25.320;2023-11-21T04:14:36;6.17;;;3.70;;
20114;SDS011;10218;42.874;25.320;2023-11-21T04:17:03;6.07;;;3.00;;
20114;SDS011;10218;42.874;25.320;2023-11-21T04:19:30;3.37;;;2.33;;
20114;SDS011;10218;42.874;25.320;2023-11-21T04:21:57;4.17;;;2.83;;
20114;SDS011;10218;42.874;25.320;2023-11-21T04:24:24;3.93;;;2.67;;
20114;SDS011;10218;42.874;25.320;2023-11-21T04:26:52;5.27;;;2.20;;
20114;SDS011;10218;42.874;25.320;2023-11-21T04:29:20;5.83;;;2.90;;
20114;SDS011;10218;42.874;25.320;2023-11-21T04:31:47;2.90;;;1.83;;
20114;SDS011;10218;42.874;25.320;2023-11-21T04:34:16;4.40;;;1.80;;
20114;SDS011;10218;42.874;25.320;2023-11-21T04:36:43;5.30;;;2.23;;
20114;SDS011;10218;42.874;25.320;2023-11-21T04:39:11;4.47;;;2.40;;
20114;SDS011;10218;42.874;25.320;2023-11-21T04:41:38;5.93;;;3.90;;
20114;SDS011;10218;42.874;25.320;2023-11-21T04:44:06;10.07;;;4.53;;
20114;SDS011;10218;42.874;25.320;2023-11-21T04:46:33;6.40;;;4.03;;
20114;SDS011;10218;42.874;25.320;2023-11-21T04:49:00;8.07;;;3.57;;
20114;SDS011;10218;42.874;25.320;2023-11-21T04:51:27;8.17;;;3.60;;
20114;SDS011;10218;42.874;25.320;2023-11-21T04:53:55;7.47;;;4.10;;
20114;SDS011;10218;42.874;25.320;2023-11-21T04:56:23;5.20;;;3.00;;
20114;SDS011;10218;42.874;25.320;2023-11-21T04:58:50;6.17;;;2.97;;
20114;SDS011;10218;42.874;25.320;2023-11-21T05:01:17;5.47;;;3.20;;
20114;SDS011;10218;42.874;25.320;2023-11-21T05:03:44;4.97;;;2.80;;
20114;SDS011;10218;42.874;25.320;2023-11-21T05:06:13;7.87;;;4.30;;
20114;SDS011;10218;42.874;25.320;2023-11-21T05:08:40;5.00;;;2.87;;
20114;SDS011;10218;42.874;25.320;2023-11-21T05:11:09;4.87;;;2.60;;
20114;SDS011;10218;42.874;25.320;2023-11-21T05:13:37;6.03;;;3.53;;
20114;SDS011;10218;42.874;25.320;2023-11-21T05:16:05;3.80;;;1.90;;
20114;SDS011;10218;42.874;25.320;2023-11-21T05:18:33;4.13;;;2.00;;
20114;SDS011;10218;42.874;25.320;2023-11-21T05:21:01;6.07;;;2.80;;
20114;SDS011;10218;42.874;25.320;2023-11-21T05:23:28;8.70;;;5.83;;
20114;SDS011;10218;42.874;25.320;2023-11-21T05:25:56;14.30;;;6.83;;
20114;SDS011;10218;42.874;25.320;2023-11-21T05:28:23;10.33;;;6.83;;
20114;SDS011;10218;42.874;25.320;2023-11-21T05:30:51;13.43;;;7.80;;
20114;SDS011;10218;42.874;25.320;2023-11-21T05:33:21;12.67;;;6.67;;
20114;SDS011;10218;42.874;25.320;2023-11-21T05:35:48;11.77;;;6.07;;
20114;SDS011;10218;42.874;25.320;2023-11-21T05:38:16;15.70;;;7.87;;
20114;SDS011;10218;42.874;25.320;2023-11-21T05:40:43;20.03;;;10.07;;
20114;SDS011;10218;42.874;25.320;2023-11-21T05:43:10;14.93;;;7.43;;
20114;SDS011;10218;42.874;25.320;2023-11-21T05:45:38;14.50;;;7.10;;
20114;SDS011;10218;42.874;25.320;2023-11-21T05:48:06;15.50;;;8.67;;
20114;SDS011;10218;42.874;25.320;2023-11-21T05:50:33;20.83;;;9.93;;
20114;SDS011;10218;42.874;25.320;2023-11-21T05:53:00;17.17;;;9.43;;
20114;SDS011;10218;42.874;25.320;2023-11-21T05:55:27;20.10;;;8.67;;
20114;SDS011;10218;42.874;25.320;2023-11-21T05:57:54;21.33;;;10.63;;
20114;SDS011;10218;42.874;25.320;2023-11-21T06:00:21;14.03;;;7.37;;
20114;SDS011;10218;42.874;25.320;2023-11-21T06:02:49;11.33;;;5.60;;
20114;SDS011;10218;42.874;25.320;2023-11-21T06:05:17;11.63;;;4.60;;
20114;SDS011;10218;42.874;25.320;2023-11-21T06:07:45;10.87;;;5.70;;
20114;SDS011;10218;42.874;25.320;2023-11-21T06:10:13;14.30;;;5.13;;
20114;SDS011;10218;42.874;25.320;2023-11-21T06:12:40;8.27;;;4.60;;
20114;SDS011;10218;42.874;25.320;2023-11-21T06:15:10;10.73;;;5.90;;
20114;SDS011;10218;42.874;25.320;2023-11-21T06:17:41;14.00;;;7.00;;
20114;SDS011;10218;42.874;25.320;2023-11-21T06:20:09;17.87;;;8.37;;
20114;SDS011;10218;42.874;25.320;2023-11-21T06:22:44;19.47;;;9.57;;
20114;SDS011;10218;42.874;25.320;2023-11-21T06:25:12;19.20;;;10.30;;
20114;SDS011;10218;42.874;25.320;2023-11-21T06:27:47;16.17;;;9.07;;
20114;SDS011;10218;42.874;25.320;2023-11-21T06:30:15;18.10;;;9.47;;
20114;SDS011;10218;42.874;25.320;2023-11-21T06:32:42;21.50;;;10.03;;
20114;SDS011;10218;42.874;25.320;2023-11-21T06:35:13;14.10;;;7.50;;
20114;SDS011;10218;42.874;25.320;2023-11-21T06:37:40;19.90;;;9.37;;
20114;SDS011;10218;42.874;25.320;2023-11-21T06:40:07;14.43;;;8.00;;
20114;SDS011;10218;42.874;25.320;2023-11-21T06:42:36;15.07;;;8.50;;
20114;SDS011;10218;42.874;25.320;2023-11-21T06:45:05;10.97;;;6.43;;
20114;SDS011;10218;42.874;25.320;2023-11-21T06:47:33;8.70;;;5.10;;
20114;SDS011;10218;42.874;25.320;2023-11-21T06:50:00;16.10;;;6.80;;
20114;SDS011;10218;42.874;25.320;2023-11-21T06:52:27;25.57;;;11.30;;
20114;SDS011;10218;42.874;25.320;2023-11-21T06:54:54;16.70;;;9.17;;
20114;SDS011;10218;42.874;25.320;2023-11-21T06:57:22;33.70;;;17.07;;
20114;SDS011;10218;42.874;25.320;2023-11-21T06:59:50;31.00;;;16.20;;
20114;SDS011;10218;42.874;25.320;2023-11-21T07:02:17;35.87;;;18.77;;
20114;SDS011;10218;42.874;25.320;2023-11-21T07:04:47;28.27;;;15.50;;
20114;SDS011;10218;42.874;25.320;2023-11-21T07:07:14;31.40;;;17.87;;
20114;SDS011;10218;42.874;25.320;2023-11-21T07:09:42;28.93;;;15.77;;
20114;SDS011;10218;42.874;25.320;2023-11-21T07:12:09;31.07;;;17.17;;
20114;SDS011;10218;42.874;25.320;2023-11-21T07:14:37;30.43;;;17.67;;
20114;SDS011;10218;42.874;25.320;2023-11-21T07:17:06;40.53;;;19.80;;
20114;SDS011;10218;42.874;25.320;2023-11-21T07:19:34;41.27;;;23.17;;
20114;SDS011;10218;42.874;25.320;2023-11-21T07:22:01;41.63;;;21.63;;
20114;SDS011;10218;42.874;25.320;2023-11-21T07:24:29;33.43;;;17.77;;
20114;SDS011;10218;42.874;25.320;2023-11-21T07:26:57;28.37;;;16.00;;
20114;SDS011;10218;42.874;25.320;2023-11-21T07:29:25;26.93;;;15.47;;
20114;SDS011;10218;42.874;25.320;2023-11-21T07:31:53;32.67;;;18.77;;
20114;SDS011;10218;42.874;25.320;2023-11-21T07:34:20;34.17;;;18.40;;
20114;SDS011;10218;42.874;25.320;2023-11-21T07:36:48;32.77;;;17.70;;
20114;SDS011;10218;42.874;25.320;2023-11-21T07:39:15;48.40;;;20.97;;
20114;SDS011;10218;42.874;25.320;2023-11-21T07:41:43;78.60;;;34.03;;
20114;SDS011;10218;42.874;25.320;2023-11-21T07:44:15;51.87;;;23.83;;
20114;SDS011;10218;42.874;25.320;2023-11-21T07:46:44;57.00;;;25.83;;
20114;SDS011;10218;42.874;25.320;2023-11-21T07:49:12;43.63;;;22.20;;
20114;SDS011;10218;42.874;25.320;2023-11-21T07:51:43;48.00;;;22.93;;
20114;SDS011;10218;42.874;25.320;2023-11-21T07:54:11;35.80;;;17.90;;
20114;SDS011;10218;42.874;25.320;2023-11-21T07:56:38;49.60;;;24.33;;
20114;SDS011;10218;42.874;25.320;2023-11-21T07:59:05;47.93;;;25.87;;
20114;SDS011;10218;42.874;25.320;2023-11-21T08:01:32;100.73;;;51.50;;
20114;SDS011;10218;42.874;25.320;2023-11-21T08:04:00;45.07;;;25.93;;
20114;SDS011;10218;42.874;25.320;2023-11-21T08:06:30;33.77;;;19.40;;
20114;SDS011;10218;42.874;25.320;2023-11-21T08:08:57;32.93;;;20.50;;
20114;SDS011;10218;42.874;25.320;2023-11-21T08:11:25;34.70;;;21.97;;
20114;SDS011;10218;42.874;25.320;2023-11-21T08:13:55;27.93;;;18.30;;
20114;SDS011;10218;42.874;25.320;2023-11-21T08:16:23;31.97;;;20.50;;
20114;SDS011;10218;42.874;25.320;2023-11-21T08:18:51;37.17;;;24.60;;
20114;SDS011;10218;42.874;25.320;2023-11-21T08:21:18;42.93;;;28.43;;
20114;SDS011;10218;42.874;25.320;2023-11-21T08:23:45;36.07;;;25.23;;
20114;SDS011;10218;42.874;25.320;2023-11-21T08:26:15;29.70;;;19.80;;
20114;SDS011;10218;42.874;25.320;2023-11-21T08:28:43;37.13;;;25.50;;
20114;SDS011;10218;42.874;25.320;2023-11-21T08:31:10;15.70;;;8.80;;
20114;SDS011;10218;42.874;25.320;2023-11-21T08:33:38;9.60;;;6.20;;
20114;SDS011;10218;42.874;25.320;2023-11-21T08:36:09;5.60;;;3.57;;
20114;SDS011;10218;42.874;25.320;2023-11-21T08:38:37;4.07;;;2.10;;
20114;SDS011;10218;42.874;25.320;2023-11-21T08:41:05;3.10;;;1.73;;
20114;SDS011;10218;42.874;25.320;2023-11-21T08:43:34;2.60;;;1.60;;
20114;SDS011;10218;42.874;25.320;2023-11-21T08:46:02;4.37;;;2.50;;
20114;SDS011;10218;42.874;25.320;2023-11-21T08:48:30;6.13;;;1.57;;
20114;SDS011;10218;42.874;25.320;2023-11-21T08:50:57;6.23;;;2.33;;
20114;SDS011;10218;42.874;25.320;2023-11-21T08:53:24;4.87;;;1.87;;
20114;SDS011;10218;42.874;25.320;2023-11-21T08:55:52;4.77;;;2.23;;
20114;SDS011;10218;42.874;25.320;2023-11-21T08:58:20;6.40;;;2.90;;
20114;SDS011;10218;42.874;25.320;2023-11-21T09:00:48;4.50;;;1.80;;
20114;SDS011;10218;42.874;25.320;2023-11-21T09:03:15;4.80;;;2.27;;
20114;SDS011;10218;42.874;25.320;2023-11-21T09:05:42;3.60;;;2.00;;
20114;SDS011;10218;42.874;25.320;2023-11-21T09:08:09;3.20;;;1.90;;
20114;SDS011;10218;42.874;25.320;2023-11-21T09:10:36;4.07;;;1.87;;
20114;SDS011;10218;42.874;25.320;2023-11-21T09:13:03;2.97;;;1.90;;
20114;SDS011;10218;42.874;25.320;2023-11-21T09:15:30;2.73;;;1.70;;
20114;SDS011;10218;42.874;25.320;2023-11-21T09:17:58;5.77;;;1.97;;
20114;SDS011;10218;42.874;25.320;2023-11-21T09:20:26;2.70;;;1.70;;
20114;SDS011;10218;42.874;25.320;2023-11-21T09:22:53;2.37;;;1.57;;
20114;SDS011;10218;42.874;25.320;2023-11-21T09:25:22;3.07;;;1.93;;
20114;SDS011;10218;42.874;25.320;2023-11-21T09:27:49;2.97;;;1.77;;
20114;SDS011;10218;42.874;25.320;2023-11-21T09:30:16;2.07;;;1.40;;
20114;SDS011;10218;42.874;25.320;2023-11-21T09:32:43;1.93;;;1.50;;
20114;SDS011;10218;42.874;25.320;2023-11-21T09:35:12;1.70;;;1.40;;
20114;SDS011;10218;42.874;25.320;2023-11-21T09:37:40;2.30;;;1.40;;
20114;SDS011;10218;42.874;25.320;2023-11-21T09:40:09;2.77;;;1.50;;
20114;SDS011;10218;42.874;25.320;2023-11-21T09:42:42;1.73;;;1.30;;
20114;SDS011;10218;42.874;25.320;2023-11-21T09:45:21;4.67;;;1.50;;
20114;SDS011;10218;42.874;25.320;2023-11-21T09:47:58;2.33;;;1.30;;
20114;SDS011;10218;42.874;25.320;2023-11-21T09:50:26;3.40;;;1.30;;
20114;SDS011;10218;42.874;25.320;2023-11-21T09:55:49;4.43;;;1.50;;
20114;SDS011;10218;42.874;25.320;2023-11-21T09:58:18;6.27;;;2.23;;
20114;SDS011;10218;42.874;25.320;2023-11-21T10:00:47;5.20;;;2.27;;
20114;SDS011;10218;42.874;25.320;2023-11-21T10:03:15;4.73;;;2.67;;
20114;SDS011;10218;42.874;25.320;2023-11-21T10:05:43;9.83;;;3.97;;
20114;SDS011;10218;42.874;25.320;2023-11-21T10:08:13;5.87;;;2.40;;
20114;SDS011;10218;42.874;25.320;2023-11-21T10:10:43;12.97;;;4.93;;
20114;SDS011;10218;42.874;25.320;2023-11-21T10:13:12;9.20;;;3.73;;
20114;SDS011;10218;42.874;25.320;2023-11-21T10:15:43;7.67;;;3.87;;
20114;SDS011;10218;42.874;25.320;2023-11-21T10:18:15;10.20;;;4.33;;
20114;SDS011;10218;42.874;25.320;2023-11-21T10:20:43;11.83;;;4.77;;
20114;SDS011;10218;42.874;25.320;2023-11-21T10:23:19;3.03;;;1.60;;
20114;SDS011;10218;42.874;25.320;2023-11-21T10:25:49;1.93;;;1.27;;
20114;SDS011;10218;42.874;25.320;2023-11-21T10:28:18;2.00;;;1.60;;
20114;SDS011;10218;42.874;25.320;2023-11-21T10:30:47;2.10;;;1.20;;
20114;SDS011;10218;42.874;25.320;2023-11-21T10:33:14;2.33;;;1.30;;
20114;SDS011;10218;42.874;25.320;2023-11-21T10:38:08;2.50;;;1.70;;
20114;SDS011;10218;42.874;25.320;2023-11-21T10:40:40;2.43;;;1.77;;
20114;SDS011;10218;42.874;25.320;2023-11-21T10:43:09;4.30;;;1.90;;
20114;SDS011;10218;42.874;25.320;2023-11-21T10:45:37;3.03;;;1.67;;
20114;SDS011;10218;42.874;25.320;2023-11-21T10:48:13;2.93;;;2.00;;
20114;SDS011;10218;42.874;25.320;2023-11-21T10:50:45;3.77;;;1.90;;
20114;SDS011;10218;42.874;25.320;2023-11-21T10:53:13;4.03;;;2.20;;
20114;SDS011;10218;42.874;25.320;2023-11-21T10:55:41;3.07;;;2.07;;
20114;SDS011;10218;42.874;25.320;2023-11-21T10:58:10;2.10;;;1.60;;
20114;SDS011;10218;42.874;25.320;2023-11-21T11:00:40;3.33;;;2.30;;
20114;SDS011;10218;42.874;25.320;2023-11-21T11:03:08;2.97;;;2.00;;
20114;SDS011;10218;42.874;25.320;2023-11-21T11:05:42;5.17;;;2.30;;
20114;SDS011;10218;42.874;25.320;2023-11-21T11:08:18;3.00;;;2.10;;
20114;SDS011;10218;42.874;25.320;2023-11-21T11:10:53;2.67;;;2.07;;
20114;SDS011;10218;42.874;25.320;2023-11-21T11:13:21;2.90;;;2.10;;
20114;SDS011;10218;42.874;25.320;2023-11-21T11:15:49;2.13;;;1.83;;
20114;SDS011;10218;42.874;25.320;2023-11-21T11:18:17;3.37;;;2.00;;
20114;SDS011;10218;42.874;25.320;2023-11-21T11:20:47;4.97;;;2.20;;
20114;SDS011;10218;42.874;25.320;2023-11-21T11:29:52;4.03;;;2.57;;
20114;SDS011;10218;42.874;25.320;2023-11-21T11:38:01;4.37;;;2.93;;
20114;SDS011;10218;42.874;25.320;2023-11-21T11:40:41;4.23;;;2.43;;
20114;SDS011;10218;42.874;25.320;2023-11-21T11:43:11;5.53;;;3.47;;
20114;SDS011;10218;42.874;25.320;2023-11-21T11:45:48;6.07;;;2.13;;
20114;SDS011;10218;42.874;25.320;2023-11-21T11:48:18;3.67;;;2.30;;
20114;SDS011;10218;42.874;25.320;2023-11-21T11:51:01;8.03;;;2.80;;
20114;SDS011;10218;42.874;25.320;2023-11-21T11:53:35;3.63;;;2.60;;
20114;SDS011;10218;42.874;25.320;2023-11-21T11:58:55;3.93;;;2.27;;
20114;SDS011;10218;42.874;25.320;2023-11-21T12:01:24;5.40;;;3.37;;
20114;SDS011;10218;42.874;25.320;2023-11-21T12:06:41;15.67;;;7.90;;
20114;SDS011;10218;42.874;25.320;2023-11-21T12:09:18;37.07;;;17.23;;
20114;SDS011;10218;42.874;25.320;2023-11-21T12:11:48;6.73;;;4.50;;
20114;SDS011;10218;42.874;25.320;2023-11-21T12:14:16;11.57;;;6.37;;
20114;SDS011;10218;42.874;25.320;2023-11-21T12:16:44;23.17;;;11.37;;
20114;SDS011;10218;42.874;25.320;2023-11-21T12:19:12;3.33;;;2.63;;
20114;SDS011;10218;42.874;25.320;2023-11-21T12:21:39;8.80;;;3.10;;
20114;SDS011;10218;42.874;25.320;2023-11-21T12:24:10;3.47;;;2.70;;
20114;SDS011;10218;42.874;25.320;2023-11-21T12:26:41;5.53;;;2.50;;
20114;SDS011;10218;42.874;25.320;2023-11-21T12:29:09;5.50;;;2.90;;
20114;SDS011;10218;42.874;25.320;2023-11-21T12:31:37;7.90;;;3.93;;
20114;SDS011;10218;42.874;25.320;2023-11-21T12:34:05;8.67;;;5.80;;
20114;SDS011;10218;42.874;25.320;2023-11-21T12:36:33;6.77;;;2.93;;
20114;SDS011;10218;42.874;25.320;2023-11-21T12:39:01;5.00;;;3.43;;
20114;SDS011;10218;42.874;25.320;2023-11-21T12:41:30;5.07;;;3.43;;
20114;SDS011;10218;42.874;25.320;2023-11-21T12:43:57;5.17;;;3.73;;
20114;SDS011;10218;42.874;25.320;2023-11-21T12:46:25;5.23;;;3.00;;
20114;SDS011;10218;42.874;25.320;2023-11-21T12:48:56;3.43;;;3.07;;
20114;SDS011;10218;42.874;25.320;2023-11-21T12:51:24;8.63;;;3.23;;
20114;SDS011;10218;42.874;25.320;2023-11-21T12:53:52;4.90;;;2.77;;
20114;SDS011;10218;42.874;25.320;2023-11-21T12:56:21;4.73;;;2.70;;
20114;SDS011;10218;42.874;25.320;2023-11-21T12:58:50;8.00;;;3.20;;
20114;SDS011;10218;42.874;25.320;2023-11-21T13:01:21;5.13;;;3.23;;
20114;SDS011;10218;42.874;25.320;2023-11-21T13:03:56;4.70;;;3.00;;
20114;SDS011;10218;42.874;25.320;2023-11-21T13:06:25;5.20;;;3.00;;
20114;SDS011;10218;42.874;25.320;2023-11-21T13:08:54;4.93;;;2.80;;
20114;SDS011;10218;42.874;25.320;2023-11-21T13:11:23;6.37;;;3.27;;
20114;SDS011;10218;42.874;25.320;2023-11-21T13:13:53;4.07;;;2.90;;
20114;SDS011;10218;42.874;25.320;2023-11-21T13:16:23;7.57;;;3.00;;
20114;SDS011;10218;42.874;25.320;2023-11-21T13:18:50;6.83;;;3.70;;
20114;SDS011;10218;42.874;25.320;2023-11-21T13:21:17;7.47;;;3.47;;
20114;SDS011;10218;42.874;25.320;2023-11-21T13:23:44;4.23;;;3.00;;
20114;SDS011;10218;42.874;25.320;2023-11-21T13:26:12;7.87;;;3.07;;
20114;SDS011;10218;42.874;25.320;2023-11-21T13:28:41;7.77;;;3.87;;
20114;SDS011;10218;42.874;25.320;2023-11-21T13:31:12;5.33;;;3.37;;
20114;SDS011;10218;42.874;25.320;2023-11-21T13:33:59;6.50;;;3.00;;
20114;SDS011;10218;42.874;25.320;2023-11-21T13:36:31;5.17;;;3.20;;
20114;SDS011;10218;42.874;25.320;2023-11-21T13:39:02;8.83;;;3.97;;
20114;SDS011;10218;42.874;25.320;2023-11-21T13:41:36;8.23;;;3.90;;
20114;SDS011;10218;42.874;25.320;2023-11-21T13:44:05;6.40;;;3.33;;
20114;SDS011;10218;42.874;25.320;2023-11-21T13:46:53;6.10;;;4.40;;
20114;SDS011;10218;42.874;25.320;2023-11-21T13:49:22;7.80;;;4.67;;
20114;SDS011;10218;42.874;25.320;2023-11-21T13:51:49;6.87;;;4.00;;
20114;SDS011;10218;42.874;25.320;2023-11-21T13:54:19;4.57;;;3.23;;
20114;SDS011;10218;42.874;25.320;2023-11-21T13:56:50;5.03;;;3.23;;
20114;SDS011;10218;42.874;25.320;2023-11-21T13:59:17;5.07;;;3.67;;
20114;SDS011;10218;42.874;25.320;2023-11-21T14:01:51;7.50;;;4.03;;
20114;SDS011;10218;42.874;25.320;2023-11-21T14:04:39;6.10;;;3.40;;
20114;SDS011;10218;42.874;25.320;2023-11-21T14:07:27;6.63;;;3.23;;
20114;SDS011;10218;42.874;25.320;2023-11-21T14:10:03;6.03;;;3.70;;
20114;SDS011;10218;42.874;25.320;2023-11-21T14:12:33;9.83;;;5.57;;
20114;SDS011;10218;42.874;25.320;2023-11-21T14:15:03;8.57;;;4.67;;
20114;SDS011;10218;42.874;25.320;2023-11-21T14:17:32;5.87;;;4.03;;
20114;SDS011;10218;42.874;25.320;2023-11-21T14:20:01;5.03;;;3.10;;
20114;SDS011;10218;42.874;25.320;2023-11-21T14:22:32;5.90;;;3.20;;
20114;SDS011;10218;42.874;25.320;2023-11-21T14:24:59;7.90;;;3.70;;
20114;SDS011;10218;42.874;25.320;2023-11-21T14:27:30;8.10;;;2.90;;
20114;SDS011;10218;42.874;25.320;2023-11-21T14:30:00;5.17;;;3.20;;
20114;SDS011;10218;42.874;25.320;2023-11-21T14:32:27;8.10;;;5.20;;
20114;SDS011;10218;42.874;25.320;2023-11-21T14:34:54;5.63;;;3.70;;
20114;SDS011;10218;42.874;25.320;2023-11-21T14:37:21;6.70;;;4.27;;
20114;SDS011;10218;42.874;25.320;2023-11-21T14:39:49;5.13;;;3.50;;
20114;SDS011;10218;42.874;25.320;2023-11-21T14:42:16;5.80;;;3.90;;
20114;SDS011;10218;42.874;25.320;2023-11-21T14:44:50;7.93;;;4.63;;
20114;SDS011;10218;42.874;25.320;2023-11-21T14:47:18;7.37;;;3.77;;
20114;SDS011;10218;42.874;25.320;2023-11-21T14:49:52;11.10;;;6.67;;
20114;SDS011;10218;42.874;25.320;2023-11-21T14:52:19;9.67;;;5.30;;
20114;SDS011;10218;42.874;25.320;2023-11-21T14:55:00;13.93;;;9.40;;
20114;SDS011;10218;42.874;25.320;2023-11-21T14:57:46;35.20;;;18.10;;
20114;SDS011;10218;42.874;25.320;2023-11-21T15:00:18;18.03;;;9.70;;